Ugnu Kuparuk, AK

12:29 PM AKDT op 24 oktober 2014 (GMT -0800)
Kuparuk | Change Station
CLOSE
Current Station
Luchthaven
Location: Kuparuk,
Geometrische hoogte: 66 ft
Nabije weerstations

Hoogte 66 ft 70.33 °N, 149.60 °W | Updated 39 minutes ago

Overcast
Geheel bewolkt
19 °F
Voelt als 7 °F
N
12
Wind Variabel Wind van OZO

Vandaag
Hoog -- | Laag -- °F
--% Kans op neerslag
Gisteren
Hoog -- | Laag -- °F
Precip. -- inches
9:54 AM 5:28 PM
Nieuwe maan, 1% visible
Druk 29.77 inches
Zicht 10.0 mijlen
Wolken Gering 1400 ft
Geheel bewolkt 10000 ft
Gevoelstemperatuur 7 °F
Dauwpunt 16 °F
Vochtigheid 86%
Neerslag 0.00 inches
Dikte sneeuw Niet beschikbaar.
UV 0 van de 12
Pollen Niet beschikbaar.
Luchtkwaliteit Niet beschikbaar.
Flu Activity Sporadic
METAR PAKU 241950Z 11010KT 10SM R06/P6000FT FEW014 OVC100 M07/M09 A2977

More Conditions Fewer Conditions

Druk 29.77 inches
Zicht 10.0 mijlen
Wolken Gering 1400 ft
Geheel bewolkt 10000 ft
Gevoelstemperatuur 7 °F
Dauwpunt 16 °F
Vochtigheid 86%
Neerslag 0.00 inches
Dikte sneeuw Niet beschikbaar.
UV 0 van de 12
Pollen Niet beschikbaar.
Luchtkwaliteit Niet beschikbaar.
Flu Activity Sporadic
METAR PAKU 241950Z 11010KT 10SM R06/P6000FT FEW014 OVC100 M07/M09 A2977

More Conditions Fewer Conditions

10-Day Weather Forecast

Almanac

Astronomie

Oct. 24, 2014 Opkomst Ondergang
Werkelijke tijd 9:54 AM AKDT 5:28 PM AKDT
Burgerlijke schemering 8:45 AM AKDT 6:37 PM AKDT
Nautische schemering 7:32 AM AKDT 7:50 PM AKDT
Astronomische schemering 6:20 AM AKDT 9:02 PM AKDT
Maan 11:15 AM AKDT 5:36 PM AKDT
Golflengte van het zichtbare licht 9h 52m
Daglengte
7h 33m
Tomorrow will be 9m 39s shorter.
Nieuwe maan, 1% of the Moon is Illuminated
Vandaag
Nieuwe maan
oktober 30
Eerste kwartier
nov 6
Volle maan
nov 14
Laatste kwartier
nov 22
Nieuw

Extremen vandaag

State Highs State Lows

Community

WunderPhotos

Upload Photos

1,764,646 foto’s ge-upload!

Nearby

Luchtkwaliteit

Not available.

Dikte sneeuw

Station Depth Geometrische hoogte
Imnaviat Creek 23 in 3050 ft
Atigun Pass 14 in 4800 ft
Coldfoot 5 in 1040 ft
Gobblers Knob 2 in 2030 ft
Fort Yukon 3 in 430 ft

Aardbevingen

Stad Distance Mag. Time & Date
No recent earthquake activity has been reported nearby.
Minimum magnitude displayed is 2.5.

Watertemperatuur langs de kust

Plaats Temperatuur
Geen meldingen van stations

Nabije weerstations